createdAt,value
2019-02-11T00:01:50.986Z,14.30
2019-02-11T00:04:23.097Z,12.87
2019-02-11T00:06:54.764Z,15.30
2019-02-11T00:09:26.578Z,17.53
2019-02-11T00:11:58.253Z,14.93
2019-02-11T00:14:29.896Z,16.97
2019-02-11T00:17:01.204Z,17.40
2019-02-11T00:19:32.530Z,14.17
2019-02-11T00:22:03.910Z,14.00
2019-02-11T00:24:35.275Z,17.83
2019-02-11T00:27:06.620Z,15.47
2019-02-11T00:29:38.114Z,13.03
2019-02-11T00:32:09.401Z,9.03
2019-02-11T00:34:40.685Z,11.23
2019-02-11T00:37:11.978Z,13.97
2019-02-11T00:39:43.384Z,13.90
2019-02-11T00:42:14.783Z,13.77
2019-02-11T00:44:46.106Z,14.53
2019-02-11T00:47:17.500Z,13.00
2019-02-11T00:49:48.858Z,15.10
2019-02-11T00:52:20.042Z,13.33
2019-02-11T00:54:51.458Z,12.47
2019-02-11T00:57:22.649Z,12.00
2019-02-11T00:59:55.169Z,12.00
2019-02-11T01:02:26.502Z,14.80
2019-02-11T01:04:57.883Z,16.30
2019-02-11T01:07:29.393Z,20.50
2019-02-11T01:10:00.807Z,11.03
2019-02-11T01:12:32.222Z,13.43
2019-02-11T01:15:03.491Z,9.03
2019-02-11T01:17:34.893Z,10.70
2019-02-11T01:20:08.080Z,24.10
2019-02-11T01:22:39.589Z,16.63
2019-02-11T01:25:11.319Z,13.07
2019-02-11T01:27:42.691Z,18.07
2019-02-11T01:30:15.965Z,19.17
2019-02-11T01:32:47.429Z,11.90
2019-02-11T01:35:19.502Z,13.50
2019-02-11T01:37:50.687Z,12.57
2019-02-11T01:40:22.301Z,15.97
2019-02-11T01:42:53.548Z,17.57
2019-02-11T01:45:24.745Z,14.00
2019-02-11T01:47:56.078Z,15.70
2019-02-11T01:50:27.426Z,18.13
2019-02-11T01:52:58.873Z,16.13
2019-02-11T01:55:30.143Z,16.70
2019-02-11T01:58:01.554Z,16.90
2019-02-11T02:00:33.020Z,20.13
2019-02-11T02:03:11.607Z,20.97
2019-02-11T02:05:42.880Z,16.33
2019-02-11T02:08:14.233Z,21.53
2019-02-11T02:10:45.463Z,18.90
2019-02-11T02:13:16.771Z,23.67
2019-02-11T02:15:48.136Z,18.60
2019-02-11T02:18:19.447Z,18.77
2019-02-11T02:20:50.660Z,21.33
2019-02-11T02:23:21.797Z,19.87
2019-02-11T02:25:53.077Z,20.07
2019-02-11T02:28:24.400Z,23.77
2019-02-11T02:30:55.607Z,19.27
2019-02-11T02:33:27.253Z,21.40
2019-02-11T02:36:07.941Z,24.60
2019-02-11T02:38:39.779Z,25.37
2019-02-11T02:41:11.807Z,32.53
2019-02-11T02:43:43.515Z,23.43
2019-02-11T02:46:14.879Z,26.43
2019-02-11T02:48:46.395Z,23.43
2019-02-11T02:51:17.708Z,21.33
2019-02-11T02:53:49.028Z,21.43
2019-02-11T02:56:20.386Z,22.50
2019-02-11T02:58:51.783Z,22.77
2019-02-11T03:01:23.143Z,25.53
2019-02-11T03:03:54.396Z,29.63
2019-02-11T03:06:26.729Z,23.07
2019-02-11T03:08:58.471Z,21.73
2019-02-11T03:11:30.395Z,22.73
2019-02-11T03:14:05.956Z,27.03
2019-02-11T03:16:37.935Z,28.37
2019-02-11T03:19:09.548Z,17.90
2019-02-11T03:21:41.141Z,28.00
2019-02-11T03:24:12.876Z,25.73
2019-02-11T03:26:44.732Z,18.83
2019-02-11T03:29:24.658Z,19.67
2019-02-11T03:31:59.719Z,17.17
2019-02-11T03:34:29.803Z,18.23
2019-02-11T03:37:01.466Z,16.07
2019-02-11T03:39:33.157Z,10.43
2019-02-11T03:42:05.209Z,12.20
2019-02-11T03:44:37.468Z,7.80
2019-02-11T03:47:09.155Z,18.37
2019-02-11T03:49:40.788Z,9.90
2019-02-11T03:52:12.569Z,7.30
2019-02-11T03:54:44.707Z,8.60
2019-02-11T03:57:16.345Z,9.30
2019-02-11T03:59:48.158Z,10.57
2019-02-11T04:02:19.942Z,7.40
2019-02-11T04:04:51.175Z,9.17
2019-02-11T04:07:22.559Z,8.97
2019-02-11T04:09:53.812Z,11.93
2019-02-11T04:12:25.177Z,9.13
2019-02-11T04:14:56.546Z,12.40
2019-02-11T04:17:27.840Z,11.07
2019-02-11T04:19:59.109Z,4.57
2019-02-11T04:22:30.474Z,8.00
2019-02-11T04:25:01.813Z,9.50
2019-02-11T04:27:33.146Z,5.47
2019-02-11T04:30:04.725Z,10.57
2019-02-11T04:32:38.769Z,8.30
2019-02-11T04:35:10.238Z,8.33
2019-02-11T04:37:41.658Z,6.23
2019-02-11T04:40:13.494Z,6.57
2019-02-11T04:42:44.851Z,6.60
2019-02-11T04:45:16.472Z,7.93
2019-02-11T04:47:48.310Z,7.60
2019-02-11T04:50:19.652Z,8.83
2019-02-11T04:52:50.887Z,7.67
2019-02-11T04:55:22.332Z,7.47
2019-02-11T04:57:53.588Z,8.13
2019-02-11T05:00:24.895Z,10.10
2019-02-11T05:02:56.341Z,9.77
2019-02-11T05:05:27.638Z,6.00
2019-02-11T05:07:58.829Z,11.17
2019-02-11T05:10:30.283Z,18.83
2019-02-11T05:13:01.751Z,19.33
2019-02-11T05:15:33.106Z,15.50
2019-02-11T05:18:04.555Z,17.17
2019-02-11T05:20:35.909Z,15.30
2019-02-11T05:23:07.258Z,13.03
2019-02-11T05:25:38.361Z,13.87
2019-02-11T05:28:09.808Z,14.10
2019-02-11T05:30:41.153Z,8.37
2019-02-11T05:33:12.562Z,12.30
2019-02-11T05:35:43.899Z,14.77
2019-02-11T05:38:15.240Z,12.57
2019-02-11T05:40:49.048Z,10.43
2019-02-11T05:43:20.253Z,14.40
2019-02-11T05:45:52.575Z,11.90
2019-02-11T05:48:23.853Z,15.90
2019-02-11T05:50:55.492Z,16.80
2019-02-11T05:53:26.809Z,13.40
2019-02-11T05:55:59.659Z,18.97
2019-02-11T05:58:30.985Z,12.00
2019-02-11T06:01:02.539Z,16.83
2019-02-11T06:03:34.006Z,16.03
2019-02-11T06:06:05.455Z,26.20
2019-02-11T06:08:36.976Z,17.73
2019-02-11T06:11:08.668Z,15.20
2019-02-11T06:13:40.029Z,16.80
2019-02-11T06:16:11.403Z,12.23
2019-02-11T06:18:42.791Z,23.83
2019-02-11T06:21:14.125Z,23.23
2019-02-11T06:23:45.514Z,21.87
2019-02-11T06:26:16.946Z,31.80
2019-02-11T06:28:48.335Z,26.63
2019-02-11T06:31:19.703Z,26.90
2019-02-11T06:33:51.102Z,25.70
2019-02-11T06:36:22.369Z,25.23
2019-02-11T06:38:53.767Z,23.67
2019-02-11T06:41:25.050Z,16.57
2019-02-11T06:43:56.352Z,17.00
2019-02-11T06:46:29.219Z,22.13
2019-02-11T06:49:01.015Z,24.13
2019-02-11T06:51:32.380Z,22.40
2019-02-11T06:54:03.753Z,13.77
2019-02-11T06:56:35.025Z,25.63
2019-02-11T06:59:06.360Z,17.90
2019-02-11T07:01:38.021Z,24.17
2019-02-11T07:04:09.389Z,17.13
2019-02-11T07:06:40.680Z,20.50
2019-02-11T07:09:12.557Z,19.90
2019-02-11T07:11:44.442Z,19.20
2019-02-11T07:14:15.985Z,24.70
2019-02-11T07:16:47.358Z,22.27
2019-02-11T07:19:18.701Z,17.93
2019-02-11T07:21:50.056Z,15.33
2019-02-11T07:24:27.534Z,20.87
2019-02-11T07:26:58.915Z,17.67
2019-02-11T07:29:30.347Z,19.57
2019-02-11T07:32:01.807Z,18.27
2019-02-11T07:34:34.373Z,14.27
2019-02-11T07:37:05.704Z,21.27
2019-02-11T07:39:37.154Z,15.80
2019-02-11T07:42:27.228Z,17.63
2019-02-11T07:45:01.341Z,16.27
2019-02-11T07:47:32.748Z,16.00
2019-02-11T07:50:04.559Z,17.33
2019-02-11T07:52:36.451Z,21.30
2019-02-11T07:55:08.607Z,10.93
2019-02-11T07:57:40.064Z,15.50
2019-02-11T08:00:11.623Z,11.90
2019-02-11T08:02:43.109Z,19.37
2019-02-11T08:05:14.626Z,14.60
2019-02-11T08:07:46.304Z,15.03
2019-02-11T08:10:17.812Z,25.30
2019-02-11T08:12:50.223Z,21.07
2019-02-11T08:15:21.779Z,24.30
2019-02-11T08:17:53.417Z,20.47
2019-02-11T08:20:26.802Z,30.80
2019-02-11T08:22:58.273Z,30.47
2019-02-11T08:25:30.704Z,20.43
2019-02-11T08:28:02.393Z,23.60
2019-02-11T08:30:34.034Z,23.07
2019-02-11T08:33:05.481Z,32.37
2019-02-11T08:35:37.168Z,23.40
2019-02-11T08:38:08.782Z,21.93
2019-02-11T08:40:40.574Z,21.77
2019-02-11T08:43:12.152Z,20.70
2019-02-11T08:45:47.032Z,17.40
2019-02-11T08:48:17.287Z,20.83
2019-02-11T08:50:49.059Z,18.77
2019-02-11T08:53:21.086Z,20.73
2019-02-11T08:55:52.409Z,18.97
2019-02-11T08:58:23.764Z,20.60
2019-02-11T09:00:58.158Z,19.53
2019-02-11T09:03:30.223Z,16.03
2019-02-11T09:06:01.797Z,22.33
2019-02-11T09:08:33.757Z,19.70
2019-02-11T09:11:05.596Z,21.23
2019-02-11T09:13:37.245Z,18.83
2019-02-11T09:16:09.275Z,20.13
2019-02-11T09:18:40.860Z,25.37
2019-02-11T09:21:12.530Z,21.93
2019-02-11T09:23:43.913Z,19.37
2019-02-11T09:26:15.543Z,16.87
2019-02-11T09:28:48.442Z,19.43
2019-02-11T09:31:20.172Z,20.30
2019-02-11T09:33:52.181Z,17.07
2019-02-11T09:36:23.526Z,17.37
2019-02-11T09:38:55.390Z,19.27
2019-02-11T09:41:29.997Z,17.87
2019-02-11T09:44:01.941Z,22.83
2019-02-11T09:46:34.004Z,18.43
2019-02-11T09:49:05.641Z,17.53
2019-02-11T09:51:42.615Z,18.90
2019-02-11T09:54:14.216Z,14.63
2019-02-11T09:56:46.969Z,41.87
2019-02-11T09:59:18.587Z,20.60
2019-02-11T10:01:50.533Z,23.17
2019-02-11T10:04:23.634Z,21.63
2019-02-11T10:07:04.259Z,15.60
2019-02-11T10:09:36.704Z,17.50
2019-02-11T10:12:11.663Z,15.70
2019-02-11T10:14:43.434Z,24.33
2019-02-11T10:17:15.271Z,19.93
2019-02-11T10:19:47.246Z,14.90
2019-02-11T10:22:19.350Z,17.60
2019-02-11T10:24:53.859Z,17.03
2019-02-11T10:27:26.985Z,15.60
2019-02-11T10:29:58.726Z,14.77
2019-02-11T10:32:30.473Z,16.07
2019-02-11T10:35:09.491Z,21.60
2019-02-11T10:37:42.436Z,15.53
2019-02-11T10:40:21.022Z,14.73
2019-02-11T10:42:52.733Z,20.53
2019-02-11T10:45:25.464Z,13.03
2019-02-11T10:47:57.307Z,18.87
2019-02-11T10:50:28.972Z,21.43
2019-02-11T10:53:01.318Z,12.13
2019-02-11T10:55:32.981Z,15.07
2019-02-11T10:58:05.119Z,11.23
2019-02-11T11:00:37.755Z,13.27
2019-02-11T11:03:09.401Z,12.03
2019-02-11T11:05:40.824Z,7.37
2019-02-11T11:08:12.970Z,27.93
2019-02-11T11:10:45.279Z,10.27
2019-02-11T11:13:16.680Z,10.87
2019-02-11T11:15:48.380Z,6.73
2019-02-11T11:18:20.051Z,6.30
2019-02-11T11:20:51.509Z,11.63
2019-02-11T11:23:24.495Z,8.50
2019-02-11T11:26:01.078Z,7.87
2019-02-11T11:28:33.111Z,11.70
2019-02-11T11:31:04.874Z,8.67
2019-02-11T11:33:38.504Z,9.87
2019-02-11T11:36:10.092Z,6.17
2019-02-11T11:38:42.506Z,5.20
2019-02-11T11:41:13.944Z,6.27
2019-02-11T11:43:46.444Z,4.97
2019-02-11T11:46:26.644Z,4.83
2019-02-11T11:48:58.615Z,6.97
2019-02-11T11:51:30.146Z,5.53
2019-02-11T11:54:03.593Z,5.80
2019-02-11T11:56:36.246Z,3.63
2019-02-11T11:59:08.019Z,6.70
2019-02-11T12:01:40.230Z,5.70
2019-02-11T12:04:12.591Z,4.47
2019-02-11T12:06:44.076Z,6.03
2019-02-11T12:09:15.434Z,6.37
2019-02-11T12:11:46.915Z,7.23
2019-02-11T12:14:18.863Z,7.17
2019-02-11T12:16:57.397Z,4.80
2019-02-11T12:19:24.552Z,5.30
2019-02-11T12:22:02.346Z,4.73
2019-02-11T12:24:35.105Z,4.33
2019-02-11T12:27:06.831Z,4.53
2019-02-11T12:29:38.575Z,9.93
2019-02-11T12:32:10.751Z,6.93
2019-02-11T12:34:44.797Z,4.47
2019-02-11T12:37:17.068Z,4.47
2019-02-11T12:39:48.576Z,5.00
2019-02-11T12:42:20.035Z,5.47
2019-02-11T12:44:51.765Z,6.80
2019-02-11T12:47:25.286Z,5.50
2019-02-11T12:49:57.555Z,5.47
2019-02-11T12:52:31.735Z,7.90
2019-02-11T12:55:07.540Z,4.10
2019-02-11T12:57:37.180Z,3.60
2019-02-11T13:00:17.948Z,3.50
2019-02-11T13:02:50.847Z,5.03
2019-02-11T13:05:44.870Z,2.70
2019-02-11T13:08:08.308Z,2.90
2019-02-11T13:10:40.165Z,3.10
2019-02-11T13:13:11.965Z,3.20
2019-02-11T13:16:00.380Z,6.07
2019-02-11T13:18:17.311Z,3.07
2019-02-11T13:20:49.332Z,2.03
2019-02-11T13:23:21.750Z,2.63
2019-02-11T13:25:53.354Z,2.13
2019-02-11T13:28:25.199Z,6.40
2019-02-11T13:30:57.336Z,3.53
2019-02-11T13:33:29.328Z,2.40
2019-02-11T13:36:01.542Z,1.27
2019-02-11T13:38:33.468Z,2.30
2019-02-11T13:41:05.898Z,1.10
2019-02-11T13:43:37.540Z,5.47
2019-02-11T13:46:09.380Z,3.17
2019-02-11T13:48:41.548Z,2.70
2019-02-11T13:51:13.458Z,3.20
2019-02-11T13:53:44.952Z,2.20
2019-02-11T13:56:16.823Z,1.33
2019-02-11T13:58:52.184Z,1.90
2019-02-11T14:01:24.381Z,1.13
2019-02-11T14:03:56.017Z,1.30
2019-02-11T14:06:27.755Z,1.20
2019-02-11T14:08:59.663Z,3.10
2019-02-11T14:11:31.283Z,1.33
2019-02-11T14:14:03.984Z,1.33
2019-02-11T14:16:35.896Z,1.40
2019-02-11T14:19:07.915Z,1.27
2019-02-11T14:21:39.712Z,1.13
2019-02-11T14:24:11.700Z,1.97
2019-02-11T14:26:43.751Z,1.20
2019-02-11T14:29:15.563Z,0.87
2019-02-11T14:31:47.244Z,0.80
2019-02-11T14:34:19.578Z,1.00
2019-02-11T14:36:51.115Z,1.30
2019-02-11T14:39:22.902Z,2.00
2019-02-11T14:41:54.567Z,1.43
2019-02-11T14:44:26.781Z,0.77
2019-02-11T14:46:58.838Z,1.10
2019-02-11T14:49:31.308Z,1.03
2019-02-11T14:52:02.561Z,1.50
2019-02-11T14:54:35.151Z,0.60
2019-02-11T14:57:07.240Z,1.13
2019-02-11T14:59:43.219Z,0.60
2019-02-11T15:02:14.961Z,1.63
2019-02-11T15:04:47.375Z,3.03
2019-02-11T15:07:19.525Z,0.70
2019-02-11T15:09:51.411Z,2.43
2019-02-11T15:12:23.056Z,2.30
2019-02-11T15:14:54.667Z,0.80
2019-02-11T15:17:27.111Z,1.63
2019-02-11T15:19:59.070Z,1.80
2019-02-11T15:22:31.282Z,1.27
2019-02-11T15:25:03.072Z,2.70
2019-02-11T15:27:34.837Z,2.70
2019-02-11T15:30:14.987Z,2.40
2019-02-11T15:32:46.826Z,2.60
2019-02-11T15:35:18.698Z,2.00
2019-02-11T15:37:51.025Z,3.23
2019-02-11T15:40:24.320Z,2.23
2019-02-11T15:42:56.156Z,1.83
2019-02-11T15:45:27.661Z,3.90
2019-02-11T15:48:02.793Z,4.27
2019-02-11T15:50:34.394Z,1.70
2019-02-11T15:53:05.887Z,3.57
2019-02-11T15:55:37.851Z,2.40
2019-02-11T15:58:09.735Z,4.07
2019-02-11T16:00:41.830Z,4.53
2019-02-11T16:03:16.478Z,4.80
2019-02-11T16:05:52.855Z,7.80
2019-02-11T16:08:24.560Z,5.83
2019-02-11T16:11:01.420Z,11.13
2019-02-11T16:13:29.732Z,6.13
2019-02-11T16:16:01.716Z,4.77
2019-02-11T16:18:33.268Z,3.00
2019-02-11T16:21:05.426Z,4.00
2019-02-11T16:23:37.182Z,3.07
2019-02-11T16:26:08.847Z,11.00
2019-02-11T16:28:40.557Z,4.97
2019-02-11T16:31:12.245Z,12.80
2019-02-11T16:33:43.842Z,6.50
2019-02-11T16:36:17.118Z,10.07
2019-02-11T16:38:48.921Z,9.03
2019-02-11T16:41:20.724Z,6.77
2019-02-11T16:43:52.557Z,5.60
2019-02-11T16:46:25.065Z,6.10
2019-02-11T16:49:00.565Z,8.23
2019-02-11T16:51:30.209Z,7.23
2019-02-11T16:54:02.272Z,12.33
2019-02-11T16:56:34.326Z,11.50
2019-02-11T16:59:06.214Z,12.53
2019-02-11T17:01:42.926Z,10.93
2019-02-11T17:04:11.378Z,15.57
2019-02-11T17:06:43.639Z,22.63
2019-02-11T17:09:15.266Z,22.40
2019-02-11T17:11:46.907Z,16.40
2019-02-11T17:14:20.530Z,17.40
2019-02-11T17:16:52.106Z,15.80
2019-02-11T17:19:25.931Z,10.30
2019-02-11T17:21:57.954Z,7.27
2019-02-11T17:24:29.868Z,7.37
2019-02-11T17:27:01.923Z,5.03
2019-02-11T17:29:40.672Z,4.40
2019-02-11T17:32:13.268Z,6.87
2019-02-11T17:34:45.499Z,11.27
2019-02-11T17:37:17.793Z,14.00
2019-02-11T17:39:49.737Z,20.37
2019-02-11T17:42:22.128Z,16.83
2019-02-11T17:44:55.059Z,20.03
2019-02-11T17:47:28.475Z,16.77
2019-02-11T17:50:01.505Z,6.67
2019-02-11T17:52:33.464Z,5.00
2019-02-11T17:55:05.540Z,4.53
2019-02-11T17:57:37.820Z,4.33
2019-02-11T18:00:25.049Z,5.63
2019-02-11T18:02:58.012Z,4.20
2019-02-11T18:05:30.775Z,15.17
2019-02-11T18:08:03.607Z,19.33
2019-02-11T18:10:36.142Z,24.83
2019-02-11T18:13:08.678Z,20.03
2019-02-11T18:15:42.445Z,21.97
2019-02-11T18:18:21.132Z,19.50
2019-02-11T18:20:54.135Z,33.90
2019-02-11T18:23:26.803Z,31.37
2019-02-11T18:25:59.139Z,24.77
2019-02-11T18:28:32.323Z,48.60
2019-02-11T18:31:04.983Z,35.70
2019-02-11T18:33:38.570Z,23.10
2019-02-11T18:36:12.943Z,18.40
2019-02-11T18:38:45.469Z,12.67
2019-02-11T18:41:18.300Z,15.23
2019-02-11T18:43:51.047Z,18.77
2019-02-11T18:46:23.538Z,21.80
2019-02-11T18:48:55.969Z,5.53
2019-02-11T18:51:29.757Z,5.97
2019-02-11T18:54:02.474Z,14.83
2019-02-11T18:56:35.002Z,21.47
2019-02-11T18:59:08.233Z,26.73
2019-02-11T19:01:42.587Z,10.40
2019-02-11T19:04:15.659Z,9.93
2019-02-11T19:06:49.429Z,6.83
2019-02-11T19:09:22.837Z,7.97
2019-02-11T19:11:55.967Z,4.07
2019-02-11T19:14:28.983Z,6.43
2019-02-11T19:17:01.528Z,3.67
2019-02-11T19:19:33.953Z,3.77
2019-02-11T19:22:06.421Z,5.77
2019-02-11T19:24:39.482Z,16.07
2019-02-11T19:27:12.015Z,9.13
2019-02-11T19:29:45.686Z,11.33
2019-02-11T19:32:19.338Z,5.73
2019-02-11T19:34:51.792Z,6.20
2019-02-11T19:37:25.140Z,9.07
2019-02-11T19:39:57.408Z,7.87
2019-02-11T19:42:30.023Z,6.10
2019-02-11T19:45:03.023Z,9.73
2019-02-11T19:47:36.318Z,9.43
2019-02-11T19:50:10.824Z,9.20
2019-02-11T19:52:46.501Z,11.03
2019-02-11T19:55:20.039Z,6.53
2019-02-11T19:57:53.358Z,15.20
2019-02-11T20:00:31.993Z,16.37
2019-02-11T20:03:04.645Z,13.60
2019-02-11T20:05:38.403Z,18.03
2019-02-11T20:08:13.814Z,52.70
2019-02-11T20:10:46.618Z,15.67
2019-02-11T20:13:20.389Z,5.63
2019-02-11T20:15:54.410Z,3.37
2019-02-11T20:18:29.743Z,7.20
2019-02-11T20:21:02.466Z,5.00
2019-02-11T20:23:36.055Z,14.73
2019-02-11T20:26:08.923Z,15.27
2019-02-11T20:28:41.349Z,8.93
2019-02-11T20:31:16.356Z,9.60
2019-02-11T20:33:49.076Z,9.43
2019-02-11T20:36:22.458Z,8.60
2019-02-11T20:38:55.096Z,13.57
2019-02-11T20:41:27.754Z,10.83
2019-02-11T20:44:01.215Z,22.80
2019-02-11T20:46:35.307Z,44.13
2019-02-11T20:49:08.186Z,29.27
2019-02-11T20:51:41.362Z,20.85
2019-02-11T20:54:14.449Z,14.87
2019-02-11T20:56:46.855Z,11.38
2019-02-11T20:59:19.210Z,16.45
2019-02-11T21:01:51.944Z,21.85
2019-02-11T21:04:24.616Z,20.03
2019-02-11T21:06:59.224Z,18.20
2019-02-11T21:09:31.570Z,37.25
2019-02-11T21:12:03.743Z,21.80
2019-02-11T21:14:35.431Z,21.75
2019-02-11T21:17:07.835Z,22.67
2019-02-11T21:19:39.960Z,24.30
2019-02-11T21:22:11.931Z,20.55
2019-02-11T21:24:43.644Z,18.27
2019-02-11T21:27:15.708Z,17.00
2019-02-11T21:29:47.488Z,17.97
2019-02-11T21:32:18.998Z,15.37
2019-02-11T21:34:50.941Z,9.83
2019-02-11T21:37:22.443Z,10.73
2019-02-11T21:39:54.326Z,11.53
2019-02-11T21:42:26.437Z,14.27
2019-02-11T21:44:58.018Z,19.03
2019-02-11T21:47:29.617Z,29.30
2019-02-11T21:50:03.247Z,15.10
2019-02-11T21:52:34.977Z,10.20
2019-02-11T21:55:07.723Z,9.33
2019-02-11T21:57:40.281Z,12.65
2019-02-11T22:00:15.963Z,8.70
2019-02-11T22:02:47.685Z,6.60
2019-02-11T22:05:19.462Z,15.67
2019-02-11T22:07:51.040Z,8.47
2019-02-11T22:10:22.729Z,7.33
2019-02-11T22:12:54.164Z,7.53
2019-02-11T22:15:25.872Z,5.03
2019-02-11T22:17:57.579Z,6.33
2019-02-11T22:20:34.574Z,7.23
2019-02-11T22:23:03.022Z,11.00
2019-02-11T22:25:34.549Z,9.17
2019-02-11T22:28:06.761Z,7.90
2019-02-11T22:30:38.923Z,7.77
2019-02-11T22:33:10.982Z,5.27
2019-02-11T22:35:42.758Z,12.37
2019-02-11T22:38:14.766Z,51.90
2019-02-11T22:40:46.386Z,7.37
2019-02-11T22:43:17.624Z,9.10
2019-02-11T22:45:49.242Z,8.73
2019-02-11T22:48:20.608Z,7.33
2019-02-11T22:50:52.021Z,6.07
2019-02-11T22:53:23.542Z,7.87
2019-02-11T22:55:54.908Z,7.35
2019-02-11T22:58:32.614Z,8.10
2019-02-11T23:01:08.792Z,7.72
2019-02-11T23:03:40.461Z,9.95
2019-02-11T23:06:12.136Z,12.53
2019-02-11T23:08:43.456Z,23.57
2019-02-11T23:11:18.197Z,25.55
2019-02-11T23:13:49.583Z,16.82
2019-02-11T23:16:20.979Z,26.13
2019-02-11T23:18:52.716Z,17.30
2019-02-11T23:21:24.512Z,13.25
2019-02-11T23:24:00.309Z,14.43
2019-02-11T23:26:31.690Z,12.07
2019-02-11T23:29:03.056Z,13.95
2019-02-11T23:31:34.469Z,15.75
2019-02-11T23:34:07.045Z,25.92
2019-02-11T23:36:38.443Z,57.00
2019-02-11T23:39:14.894Z,95.42
2019-02-11T23:41:46.439Z,23.00
2019-02-11T23:44:17.889Z,15.85
2019-02-11T23:46:49.248Z,7.00
2019-02-11T23:49:20.806Z,6.37
2019-02-11T23:51:52.196Z,7.03
2019-02-11T23:54:23.444Z,14.15
2019-02-11T23:56:54.819Z,18.80
2019-02-11T23:59:26.197Z,22.62
